Terminal Aerodrome Forecast
Issued by NWS

Home | Current Version | Previous Version | Text Only | Print | Product List | Glossary On
Versions: 1 2 3 4 5 6 7 8 9 10 11 12 13 14 15 16 17 18 19 20
000
FTUS43 KGRB 250500 AAA
TAFMTW
TAF AMD
KMTW 250514Z 2505/2524 11009KT P6SM SCT150 BKN250
     FM250700 09009KT 4SM -RAPL SCT012 OVC025
     FM250800 07007KT 1 1/2SM -FZRAPL OVC005
      TEMPO 2508/2510 1/2SM SN OVC003
     FM251300 26009KT P6SM OVC008
     FM251600 26012KT P6SM BKN012
     FM252000 24012G19KT P6SM SCT015 BKN070=

USA.gov is the U.S. government's official web portal to all federal, state and local government web resources and services.